createdAt,value
2023-01-13T00:01:18.583Z,213.35
2023-01-13T00:03:47.677Z,115.43
2023-01-13T00:06:17.083Z,170.93
2023-01-13T00:08:45.575Z,112.57
2023-01-13T00:11:14.279Z,220.50
2023-01-13T00:13:43.224Z,108.47
2023-01-13T00:16:13.350Z,91.75
2023-01-13T00:18:43.376Z,179.65
2023-01-13T00:21:13.819Z,89.70
2023-01-13T00:23:42.693Z,124.32
2023-01-13T00:26:12.651Z,173.25
2023-01-13T00:28:41.103Z,149.60
2023-01-13T00:31:10.586Z,105.05
2023-01-13T00:33:39.628Z,87.35
2023-01-13T00:36:10.640Z,91.93
2023-01-13T00:38:39.211Z,85.93
2023-01-13T00:41:08.710Z,103.50
2023-01-13T00:43:36.558Z,115.43
2023-01-13T00:46:04.948Z,64.85
2023-01-13T00:48:33.690Z,64.38
2023-01-13T00:51:03.341Z,62.95
2023-01-13T00:53:34.750Z,61.47
2023-01-13T00:56:03.550Z,69.97
2023-01-13T00:58:32.869Z,61.83
2023-01-13T01:01:04.772Z,60.67
2023-01-13T01:03:34.187Z,63.90
2023-01-13T01:06:07.022Z,67.55
2023-01-13T01:08:37.256Z,69.15
2023-01-13T01:11:06.756Z,54.58
2023-01-13T01:13:35.704Z,63.45
2023-01-13T01:16:07.002Z,67.70
2023-01-13T01:18:36.042Z,85.72
2023-01-13T01:21:11.496Z,76.43
2023-01-13T01:23:43.456Z,74.30
2023-01-13T01:26:13.871Z,82.78
2023-01-13T01:28:42.821Z,167.63
2023-01-13T01:31:12.027Z,68.35
2023-01-13T01:33:41.250Z,58.33
2023-01-13T01:36:10.368Z,53.72
2023-01-13T01:38:39.254Z,55.90
2023-01-13T01:41:09.324Z,51.83
2023-01-13T01:43:59.770Z,48.10
2023-01-13T01:46:29.209Z,62.63
2023-01-13T01:49:00.473Z,50.92
2023-01-13T01:51:30.583Z,54.28
2023-01-13T01:54:00.481Z,56.35
2023-01-13T01:56:32.079Z,59.90
2023-01-13T01:59:01.176Z,62.65
2023-01-13T02:01:29.791Z,52.80
2023-01-13T02:04:01.664Z,57.67
2023-01-13T02:06:31.122Z,62.30
2023-01-13T02:09:00.978Z,72.40
2023-01-13T02:11:51.733Z,64.47
2023-01-13T02:14:20.828Z,76.32
2023-01-13T02:16:56.245Z,74.63
2023-01-13T02:19:33.559Z,86.30
2023-01-13T02:22:17.047Z,62.45
2023-01-13T02:24:57.110Z,97.78
2023-01-13T02:27:40.554Z,88.80
2023-01-13T02:30:32.612Z,136.07
2023-01-13T02:33:05.445Z,128.75
2023-01-13T02:35:36.486Z,95.00
2023-01-13T02:38:05.705Z,150.45
2023-01-13T02:40:35.992Z,178.90
2023-01-13T02:43:23.487Z,123.57
2023-01-13T02:45:54.959Z,103.03
2023-01-13T02:48:24.381Z,89.13
2023-01-13T02:50:56.857Z,72.97
2023-01-13T02:53:28.767Z,41.50
2023-01-13T02:55:59.500Z,149.23
2023-01-13T02:58:28.917Z,137.43
2023-01-13T03:00:59.136Z,119.72
2023-01-13T03:03:27.627Z,115.47
2023-01-13T03:06:02.441Z,99.20
2023-01-13T03:08:39.803Z,56.50
2023-01-13T03:11:09.982Z,134.63
2023-01-13T03:13:56.766Z,124.82
2023-01-13T03:16:31.036Z,102.15
2023-01-13T03:19:04.887Z,77.60
2023-01-13T03:21:37.227Z,139.13
2023-01-13T03:24:09.087Z,130.25
2023-01-13T03:26:41.566Z,196.57
2023-01-13T03:29:15.102Z,223.65
2023-01-13T03:31:47.690Z,107.95
2023-01-13T03:34:18.504Z,201.93
2023-01-13T03:36:48.681Z,110.47
2023-01-13T03:39:19.336Z,149.60
2023-01-13T03:41:53.167Z,158.65
2023-01-13T03:44:25.148Z,197.07
2023-01-13T03:46:59.933Z,107.97
2023-01-13T03:49:29.803Z,89.43
2023-01-13T03:52:00.251Z,66.03
2023-01-13T03:54:30.125Z,173.15
2023-01-13T03:57:00.514Z,130.32
2023-01-13T03:59:30.762Z,121.97
2023-01-13T04:02:04.147Z,102.03
2023-01-13T04:04:35.217Z,100.07
2023-01-13T04:07:08.062Z,65.32
2023-01-13T04:09:40.650Z,86.63
2023-01-13T04:12:12.567Z,77.78
2023-01-13T04:14:41.362Z,82.47
2023-01-13T04:17:11.742Z,41.30
2023-01-13T04:19:40.317Z,42.60
2023-01-13T04:22:08.660Z,40.13
2023-01-13T04:24:37.299Z,40.63
2023-01-13T04:27:06.731Z,45.38
2023-01-13T04:29:35.078Z,63.45
2023-01-13T04:32:03.681Z,96.70
2023-01-13T04:34:33.605Z,83.97
2023-01-13T04:37:04.808Z,96.65
2023-01-13T04:39:33.447Z,84.90
2023-01-13T04:42:02.709Z,70.85
2023-01-13T04:44:35.395Z,72.80
2023-01-13T04:47:04.130Z,54.95
2023-01-13T04:49:33.767Z,64.10
2023-01-13T04:52:03.926Z,73.60
2023-01-13T04:54:32.187Z,50.08
2023-01-13T04:57:00.741Z,59.25
2023-01-13T04:59:28.965Z,45.45
2023-01-13T05:01:57.472Z,58.17
2023-01-13T05:04:26.831Z,53.80
2023-01-13T05:06:57.146Z,53.40
2023-01-13T05:09:27.202Z,52.95
2023-01-13T05:12:12.797Z,48.17
2023-01-13T05:14:58.587Z,81.03
2023-01-13T05:17:27.378Z,63.60
2023-01-13T05:19:57.404Z,49.45
2023-01-13T05:22:44.945Z,62.75
2023-01-13T05:25:25.992Z,126.30
2023-01-13T05:27:55.171Z,115.43
2023-01-13T05:30:27.095Z,101.78
2023-01-13T05:32:56.353Z,93.18
2023-01-13T05:35:25.310Z,54.20
2023-01-13T05:37:55.649Z,67.20
2023-01-13T05:40:41.758Z,81.05
2023-01-13T05:43:24.900Z,40.40
2023-01-13T05:45:54.818Z,57.05
2023-01-13T05:48:25.300Z,54.95
2023-01-13T05:50:54.049Z,72.85
2023-01-13T05:53:24.594Z,117.80
2023-01-13T05:55:53.080Z,102.47
2023-01-13T05:58:22.631Z,107.15
2023-01-13T06:00:52.380Z,98.80
2023-01-13T06:03:21.337Z,47.80
2023-01-13T06:05:51.596Z,66.40
2023-01-13T06:08:24.939Z,76.57
2023-01-13T06:10:53.608Z,102.00
2023-01-13T06:13:22.037Z,121.75
2023-01-13T06:15:50.274Z,71.78
2023-01-13T06:18:18.968Z,44.30
2023-01-13T06:20:48.538Z,46.40
2023-01-13T06:23:16.866Z,80.85
2023-01-13T06:25:49.453Z,63.70
2023-01-13T06:28:18.082Z,53.15
2023-01-13T06:30:48.236Z,56.03
2023-01-13T06:33:19.618Z,76.30
2023-01-13T06:35:55.693Z,88.88
2023-01-13T06:38:25.115Z,96.57
2023-01-13T06:40:55.378Z,84.43
2023-01-13T06:43:22.762Z,72.05
2023-01-13T06:45:52.635Z,71.95
2023-01-13T06:48:21.700Z,42.78
2023-01-13T06:50:50.032Z,83.22
2023-01-13T06:53:18.505Z,112.15
2023-01-13T06:55:46.998Z,63.63
2023-01-13T06:58:17.027Z,58.88
2023-01-13T07:00:49.890Z,52.83
2023-01-13T07:03:19.237Z,106.55
2023-01-13T07:05:53.218Z,61.92
2023-01-13T07:08:21.703Z,72.70
2023-01-13T07:10:51.605Z,47.17
2023-01-13T07:13:39.234Z,45.88
2023-01-13T07:16:08.421Z,71.07
2023-01-13T07:18:37.106Z,56.75
2023-01-13T07:21:07.330Z,67.90
2023-01-13T07:23:36.535Z,49.03
2023-01-13T07:26:05.405Z,68.82
2023-01-13T07:28:43.171Z,104.50
2023-01-13T07:31:15.134Z,76.50
2023-01-13T07:33:43.604Z,116.60
2023-01-13T07:36:12.429Z,46.13
2023-01-13T07:38:41.010Z,100.90
2023-01-13T07:41:27.096Z,94.57
2023-01-13T07:44:01.665Z,71.28
2023-01-13T07:46:30.747Z,53.03
2023-01-13T07:48:59.165Z,80.47
2023-01-13T07:51:28.075Z,104.25
2023-01-13T07:53:56.759Z,142.43
2023-01-13T07:56:33.120Z,41.15
2023-01-13T07:59:03.360Z,43.13
2023-01-13T08:01:33.245Z,58.42
2023-01-13T08:04:02.380Z,40.45
2023-01-13T08:06:30.981Z,44.17
2023-01-13T08:08:59.910Z,35.90
2023-01-13T08:11:28.632Z,61.63
2023-01-13T08:13:57.822Z,63.50
2023-01-13T08:16:27.993Z,74.65
2023-01-13T08:18:57.290Z,55.88
2023-01-13T08:21:26.340Z,40.55
2023-01-13T08:23:54.689Z,45.80
2023-01-13T08:26:23.244Z,34.88
2023-01-13T08:28:52.103Z,33.50
2023-01-13T08:31:20.831Z,77.75
2023-01-13T08:33:50.735Z,56.75
2023-01-13T08:36:19.662Z,59.33
2023-01-13T08:38:49.175Z,56.15
2023-01-13T08:41:38.975Z,43.40
2023-01-13T08:44:09.454Z,40.65
2023-01-13T08:46:38.386Z,39.22
2023-01-13T08:49:08.403Z,64.68
2023-01-13T08:51:37.716Z,33.50
2023-01-13T08:54:06.815Z,34.67
2023-01-13T08:56:36.821Z,50.65
2023-01-13T08:59:05.559Z,43.78
2023-01-13T09:01:34.376Z,40.72
2023-01-13T09:04:02.881Z,31.95
2023-01-13T09:06:33.299Z,29.83
2023-01-13T09:09:04.427Z,33.15
2023-01-13T09:11:52.530Z,30.50
2023-01-13T09:14:21.581Z,24.65
2023-01-13T09:16:50.055Z,23.80
2023-01-13T09:19:19.231Z,29.80
2023-01-13T09:21:49.444Z,26.40
2023-01-13T09:24:17.759Z,34.63
2023-01-13T09:26:46.393Z,28.17
2023-01-13T09:29:15.639Z,27.65
2023-01-13T09:31:44.785Z,26.38
2023-01-13T09:34:41.101Z,24.25
2023-01-13T09:37:11.346Z,25.15
2023-01-13T09:39:40.611Z,26.35
2023-01-13T09:42:34.734Z,22.95
2023-01-13T09:45:06.210Z,26.13
2023-01-13T09:47:37.073Z,28.20
2023-01-13T09:50:17.014Z,25.13
2023-01-13T09:52:51.058Z,27.52
2023-01-13T09:55:20.273Z,27.55
2023-01-13T09:57:48.911Z,22.88
2023-01-13T10:00:21.648Z,22.67
2023-01-13T10:02:57.947Z,24.27
2023-01-13T10:05:32.368Z,26.42
2023-01-13T10:08:05.600Z,24.83
2023-01-13T10:10:38.468Z,24.52
2023-01-13T10:13:14.835Z,26.27
2023-01-13T10:15:46.635Z,26.07
2023-01-13T10:18:17.213Z,25.40
2023-01-13T10:20:51.795Z,29.27
2023-01-13T10:23:35.416Z,26.92
2023-01-13T10:26:09.473Z,32.60
2023-01-13T10:28:38.407Z,29.67
2023-01-13T10:31:11.571Z,31.48
2023-01-13T10:33:41.792Z,36.28
2023-01-13T10:36:16.568Z,39.28
2023-01-13T10:38:47.197Z,38.55
2023-01-13T10:41:21.617Z,31.88
2023-01-13T10:43:59.944Z,28.38
2023-01-13T10:46:28.913Z,32.22
2023-01-13T10:48:58.646Z,33.15
2023-01-13T10:51:28.561Z,32.03
2023-01-13T10:54:00.880Z,33.17
2023-01-13T10:56:31.093Z,30.33
2023-01-13T10:59:10.860Z,27.70
2023-01-13T11:01:39.377Z,29.38
2023-01-13T11:04:18.455Z,27.63
2023-01-13T11:06:47.222Z,25.40
2023-01-13T11:09:24.027Z,23.83
2023-01-13T11:14:40.829Z,22.85
2023-01-13T11:17:17.576Z,22.00
2023-01-13T11:22:17.844Z,27.75
2023-01-13T11:24:51.408Z,22.80
2023-01-13T11:27:21.955Z,23.67
2023-01-13T11:30:01.427Z,25.23
2023-01-13T11:32:32.393Z,29.17
2023-01-13T11:35:02.526Z,26.83
2023-01-13T11:37:33.124Z,25.60
2023-01-13T11:40:06.727Z,24.73
2023-01-13T11:42:38.557Z,25.35
2023-01-13T11:45:12.883Z,28.52
2023-01-13T11:47:41.641Z,25.67
2023-01-13T11:50:15.758Z,28.10
2023-01-13T11:53:02.167Z,26.73
2023-01-13T11:55:36.659Z,26.38
2023-01-13T11:58:20.442Z,23.67
2023-01-13T12:01:09.515Z,27.98
2023-01-13T12:03:40.159Z,22.60
2023-01-13T12:06:15.927Z,22.35
2023-01-13T12:08:53.702Z,24.30
2023-01-13T12:11:26.087Z,22.27
2023-01-13T12:14:08.861Z,25.02
2023-01-13T12:16:39.253Z,22.13
2023-01-13T12:19:32.675Z,25.80
2023-01-13T12:22:05.184Z,20.05
2023-01-13T12:24:36.346Z,26.23
2023-01-13T12:27:10.605Z,27.42
2023-01-13T12:29:39.663Z,26.23
2023-01-13T12:32:09.867Z,25.60
2023-01-13T12:34:44.908Z,28.67
2023-01-13T12:37:17.194Z,25.08
2023-01-13T12:39:49.947Z,26.58
2023-01-13T12:42:38.437Z,27.33
2023-01-13T12:45:08.586Z,24.35
2023-01-13T12:47:38.233Z,30.08
2023-01-13T12:50:34.811Z,27.38
2023-01-13T12:53:23.432Z,50.40
2023-01-13T12:55:53.517Z,52.00
2023-01-13T12:58:30.590Z,39.88
2023-01-13T13:01:02.226Z,27.33
2023-01-13T13:03:32.671Z,24.25
2023-01-13T13:06:03.469Z,27.73
2023-01-13T13:08:46.735Z,29.25
2023-01-13T13:11:53.050Z,30.80
2023-01-13T13:14:36.329Z,27.23
2023-01-13T13:17:06.772Z,23.30
2023-01-13T13:19:56.613Z,26.83
2023-01-13T13:22:46.301Z,27.33
2023-01-13T13:25:26.183Z,25.73
2023-01-13T13:28:01.134Z,26.05
2023-01-13T13:30:32.555Z,27.35
2023-01-13T13:33:10.961Z,21.92
2023-01-13T13:35:43.461Z,26.88
2023-01-13T13:38:36.739Z,27.15
2023-01-13T13:41:29.591Z,26.60
2023-01-13T13:44:19.426Z,24.98
2023-01-13T13:46:51.942Z,28.05
2023-01-13T13:49:36.687Z,27.23
2023-01-13T13:52:13.846Z,28.83
2023-01-13T13:54:47.758Z,31.75
2023-01-13T13:57:19.093Z,34.17
2023-01-13T13:59:53.608Z,33.90
2023-01-13T14:02:29.853Z,34.47
2023-01-13T14:05:20.514Z,36.55
2023-01-13T14:07:50.285Z,29.60
2023-01-13T14:10:21.308Z,32.67
2023-01-13T14:12:49.901Z,32.72
2023-01-13T14:15:28.672Z,35.70
2023-01-13T14:17:57.667Z,34.88
2023-01-13T14:20:28.788Z,32.90
2023-01-13T14:23:01.571Z,38.30
2023-01-13T14:25:32.352Z,36.00
2023-01-13T14:28:02.283Z,38.03
2023-01-13T14:30:31.641Z,33.38
2023-01-13T14:33:00.942Z,35.35
2023-01-13T14:35:31.370Z,33.38
2023-01-13T14:38:04.265Z,33.40
2023-01-13T14:40:59.783Z,34.40
2023-01-13T14:43:28.368Z,36.65
2023-01-13T14:45:58.167Z,32.95
2023-01-13T14:48:33.323Z,42.65
2023-01-13T14:51:05.149Z,37.85
2023-01-13T14:53:37.851Z,33.92
2023-01-13T14:56:28.357Z,38.15
2023-01-13T14:58:57.626Z,36.85
2023-01-13T15:01:30.655Z,36.83
2023-01-13T15:04:13.885Z,42.50
2023-01-13T15:06:47.566Z,41.03
2023-01-13T15:09:16.504Z,35.78
2023-01-13T15:11:45.052Z,42.65
2023-01-13T15:14:13.480Z,37.78
2023-01-13T15:16:42.540Z,33.72
2023-01-13T15:19:11.371Z,37.88
2023-01-13T15:21:40.815Z,39.88
2023-01-13T15:24:10.585Z,43.95
2023-01-13T15:26:38.969Z,38.38
2023-01-13T15:29:11.444Z,43.58
2023-01-13T15:31:39.823Z,43.80
2023-01-13T15:34:08.904Z,38.38
2023-01-13T15:36:38.322Z,37.65
2023-01-13T15:39:08.177Z,34.42
2023-01-13T15:41:55.409Z,39.65
2023-01-13T15:44:40.474Z,43.05
2023-01-13T15:47:09.570Z,44.35
2023-01-13T15:49:39.396Z,53.55
2023-01-13T15:52:19.539Z,52.45
2023-01-13T15:54:47.847Z,48.17
2023-01-13T15:57:22.253Z,43.92
2023-01-13T15:59:51.171Z,41.25
2023-01-13T16:02:22.561Z,41.50
2023-01-13T16:04:53.934Z,37.40
2023-01-13T16:07:23.779Z,43.20
2023-01-13T16:09:54.108Z,43.58
2023-01-13T16:12:23.857Z,38.45
2023-01-13T16:14:52.930Z,37.35
2023-01-13T16:17:22.665Z,45.78
2023-01-13T16:19:52.206Z,37.75
2023-01-13T16:22:21.724Z,41.58
2023-01-13T16:24:50.893Z,40.08
2023-01-13T16:27:21.090Z,44.40
2023-01-13T16:29:52.253Z,39.88
2023-01-13T16:32:21.242Z,40.95
2023-01-13T16:34:51.012Z,43.60
2023-01-13T16:37:20.714Z,43.35
2023-01-13T16:39:49.226Z,45.05
2023-01-13T16:42:17.789Z,49.65
2023-01-13T16:44:46.757Z,45.42
2023-01-13T16:47:17.239Z,43.33
2023-01-13T16:49:48.844Z,36.80
2023-01-13T16:52:17.190Z,37.50
2023-01-13T16:54:45.508Z,38.25
2023-01-13T16:57:14.053Z,37.72
2023-01-13T16:59:42.952Z,38.05
2023-01-13T17:02:13.797Z,50.83
2023-01-13T17:04:44.477Z,43.78
2023-01-13T17:07:16.947Z,43.95
2023-01-13T17:09:48.138Z,46.40
2023-01-13T17:12:17.085Z,45.58
2023-01-13T17:14:45.553Z,43.60
2023-01-13T17:17:21.458Z,39.55
2023-01-13T17:19:55.249Z,42.63
2023-01-13T17:22:24.455Z,39.17
2023-01-13T17:25:04.258Z,40.72
2023-01-13T17:27:32.857Z,33.92
2023-01-13T17:30:01.907Z,32.33
2023-01-13T17:32:32.292Z,35.22
2023-01-13T17:35:02.904Z,34.08
2023-01-13T17:37:32.904Z,38.55
2023-01-13T17:40:01.912Z,43.10
2023-01-13T17:42:33.535Z,34.75
2023-01-13T17:45:01.817Z,39.10
2023-01-13T17:47:30.207Z,53.05
2023-01-13T17:49:58.951Z,45.92
2023-01-13T17:52:29.248Z,43.42
2023-01-13T17:54:57.653Z,39.83
2023-01-13T17:57:26.242Z,35.17
2023-01-13T17:59:55.612Z,38.40
2023-01-13T18:02:24.557Z,34.42
2023-01-13T18:04:53.225Z,36.35
2023-01-13T18:07:21.718Z,32.13
2023-01-13T18:09:52.639Z,33.65
2023-01-13T18:12:22.044Z,36.20
2023-01-13T18:14:51.184Z,35.40
2023-01-13T18:17:20.489Z,34.05
2023-01-13T18:20:11.225Z,34.50
2023-01-13T18:23:00.803Z,31.02
2023-01-13T18:25:50.398Z,35.25
2023-01-13T18:28:24.326Z,34.58
2023-01-13T18:30:55.703Z,30.42
2023-01-13T18:33:27.327Z,31.20
2023-01-13T18:35:56.162Z,30.17
2023-01-13T18:38:25.174Z,29.15
2023-01-13T18:40:55.913Z,31.88
2023-01-13T18:43:23.252Z,30.35
2023-01-13T18:45:52.711Z,31.48
2023-01-13T18:48:21.308Z,30.55
2023-01-13T18:50:50.147Z,29.83
2023-01-13T18:53:19.470Z,30.23
2023-01-13T18:55:51.219Z,32.13
2023-01-13T18:58:22.009Z,32.28
2023-01-13T19:00:51.146Z,37.70
2023-01-13T19:03:29.875Z,29.23
2023-01-13T19:06:04.525Z,34.47
2023-01-13T19:08:33.756Z,30.83
2023-01-13T19:11:05.407Z,31.70
2023-01-13T19:13:36.824Z,29.23
2023-01-13T19:16:06.360Z,29.08
2023-01-13T19:18:36.181Z,31.73
2023-01-13T19:21:05.116Z,28.33
2023-01-13T19:23:34.019Z,29.95
2023-01-13T19:26:05.101Z,28.90
2023-01-13T19:28:33.878Z,26.33
2023-01-13T19:31:04.940Z,25.77
2023-01-13T19:33:35.959Z,29.38
2023-01-13T19:36:05.532Z,29.92
2023-01-13T19:38:37.656Z,33.45
2023-01-13T19:41:33.566Z,27.73
2023-01-13T19:44:21.182Z,31.63
2023-01-13T19:46:55.334Z,27.92
2023-01-13T19:49:26.864Z,32.25
2023-01-13T19:51:55.464Z,32.28
2023-01-13T19:54:23.833Z,26.85
2023-01-13T19:56:52.999Z,28.42
2023-01-13T19:59:29.357Z,26.73
2023-01-13T20:02:05.412Z,29.20
2023-01-13T20:04:47.413Z,29.38
2023-01-13T20:07:17.357Z,25.70
2023-01-13T20:09:45.790Z,27.75
2023-01-13T20:12:17.938Z,28.85
2023-01-13T20:14:47.735Z,22.90
2023-01-13T20:17:19.167Z,31.52
2023-01-13T20:19:48.525Z,21.83
2023-01-13T20:22:17.592Z,25.83
2023-01-13T20:24:59.296Z,24.27
2023-01-13T20:27:28.652Z,26.77
2023-01-13T20:29:58.177Z,25.15
2023-01-13T20:32:29.496Z,25.60
2023-01-13T20:34:58.546Z,26.80
2023-01-13T20:37:27.913Z,25.63
2023-01-13T20:40:01.951Z,31.88
2023-01-13T20:42:30.346Z,30.23
2023-01-13T20:44:59.970Z,33.63
2023-01-13T20:47:31.142Z,32.90
2023-01-13T20:50:00.855Z,28.55
2023-01-13T20:52:29.939Z,29.58
2023-01-13T20:54:59.522Z,31.60
2023-01-13T20:57:28.752Z,27.88
2023-01-13T20:59:59.212Z,27.08
2023-01-13T21:02:28.022Z,39.58
2023-01-13T21:04:59.027Z,32.90
2023-01-13T21:07:28.892Z,35.10
2023-01-13T21:09:57.914Z,36.38
2023-01-13T21:12:44.111Z,36.92
2023-01-13T21:15:20.374Z,39.08
2023-01-13T21:18:08.012Z,37.33
2023-01-13T21:20:39.603Z,35.72
2023-01-13T21:23:10.971Z,36.78
2023-01-13T21:25:40.398Z,45.72
2023-01-13T21:28:13.984Z,41.25
2023-01-13T21:30:44.028Z,45.90
2023-01-13T21:33:14.945Z,41.47
2023-01-13T21:35:45.904Z,39.75
2023-01-13T21:38:14.463Z,61.88
2023-01-13T21:40:43.435Z,65.95
2023-01-13T21:43:45.357Z,83.93
2023-01-13T21:46:31.746Z,58.25
2023-01-13T21:49:00.859Z,55.35
2023-01-13T21:51:31.550Z,53.88
2023-01-13T21:54:01.305Z,58.92
2023-01-13T21:56:30.262Z,61.13
2023-01-13T21:58:59.399Z,47.42
2023-01-13T22:01:28.587Z,62.35
2023-01-13T22:04:15.210Z,52.15
2023-01-13T22:06:45.999Z,53.33
2023-01-13T22:09:15.468Z,55.35
2023-01-13T22:11:44.330Z,45.22
2023-01-13T22:14:14.127Z,52.67
2023-01-13T22:16:49.728Z,48.25
2023-01-13T22:19:19.797Z,44.80
2023-01-13T22:21:50.230Z,49.72
2023-01-13T22:24:18.984Z,54.28
2023-01-13T22:26:47.647Z,51.22
2023-01-13T22:29:16.615Z,52.38
2023-01-13T22:31:46.206Z,52.45
2023-01-13T22:34:15.255Z,51.45
2023-01-13T22:36:44.244Z,51.20
2023-01-13T22:39:17.849Z,46.28
2023-01-13T22:41:48.053Z,48.17
2023-01-13T22:44:16.721Z,54.15
2023-01-13T22:46:48.398Z,54.13
2023-01-13T22:49:17.831Z,47.85
2023-01-13T22:51:46.337Z,56.28
2023-01-13T22:54:18.605Z,51.85
2023-01-13T22:56:50.442Z,57.03
2023-01-13T22:59:21.565Z,52.85
2023-01-13T23:01:49.908Z,56.42
2023-01-13T23:04:19.087Z,53.22
2023-01-13T23:06:48.190Z,62.60
2023-01-13T23:09:18.157Z,70.20
2023-01-13T23:11:47.952Z,66.20
2023-01-13T23:14:17.156Z,72.38
2023-01-13T23:16:47.118Z,54.63
2023-01-13T23:19:16.447Z,58.92
2023-01-13T23:21:45.596Z,62.80
2023-01-13T23:24:14.017Z,57.75
2023-01-13T23:26:44.653Z,58.67
2023-01-13T23:29:14.491Z,72.93
2023-01-13T23:31:43.756Z,77.35
2023-01-13T23:34:14.041Z,83.22
2023-01-13T23:36:44.592Z,68.35
2023-01-13T23:39:14.258Z,84.03
2023-01-13T23:41:44.646Z,88.38
2023-01-13T23:44:13.281Z,90.80
2023-01-13T23:46:41.929Z,73.82
2023-01-13T23:49:11.045Z,77.50
2023-01-13T23:51:42.968Z,101.03
2023-01-13T23:54:12.741Z,90.55
2023-01-13T23:56:41.165Z,105.57
2023-01-13T23:59:11.382Z,82.30
